THY7WF EBBR-LTFM
Flight info
| Callsign | THY7WF |
|---|---|
| Flight time | N/A |
| Altitude | 35000 |
| Route | SOPOK Y863 OGLOR DCT EMGOD DCT BOMBI DCT BARSU DCT DEXIT DCT PESAT DCT INVED DCT TIMUR L606 GASRU T390 RILEX |
| Aircraft | A321/M-SDE3FGHIRWY/LB1 |
Departure
| Time | N/A |
|---|---|
| Airport | Brussels Airport (EBBR) |
Arrival
| Time | 2026-05-06 13:50 |
|---|---|
| Airport | İstanbul Airport (LTFM) |
| Time | Latitude | Longitude | Altitude | Speed | Heading |
|---|---|---|---|---|---|
| 2026-05-06 11:45 | 49.57415 | 11.43088 | 34803 ft | 462 kts | 124° |
| 2026-05-06 11:45 | 49.55920 | 11.47465 | 34813 ft | 462 kts | 124° |
| 2026-05-06 11:45 | 49.52931 | 11.56206 | 34818 ft | 462 kts | 124° |
| 2026-05-06 11:46 | 49.49933 | 11.64957 | 34815 ft | 462 kts | 124° |
| 2026-05-06 11:46 | 49.46947 | 11.73625 | 34789 ft | 462 kts | 124° |
| 2026-05-06 11:47 | 49.43923 | 11.82397 | 34806 ft | 462 kts | 124° |
| 2026-05-06 11:47 | 49.40909 | 11.91110 | 34811 ft | 462 kts | 124° |
| 2026-05-06 11:48 | 49.37907 | 11.99754 | 34817 ft | 462 kts | 124° |
| 2026-05-06 11:48 | 49.34875 | 12.08435 | 34820 ft | 462 kts | 124° |
| 2026-05-06 11:49 | 49.31837 | 12.17106 | 34796 ft | 462 kts | 125° |
| 2026-05-06 11:49 | 49.28797 | 12.25764 | 34808 ft | 462 kts | 125° |
| 2026-05-06 11:50 | 49.25747 | 12.34418 | 34809 ft | 461 kts | 125° |
| 2026-05-06 11:50 | 49.22686 | 12.43052 | 34820 ft | 462 kts | 125° |
| 2026-05-06 11:51 | 49.19627 | 12.51685 | 34794 ft | 462 kts | 126° |
| 2026-05-06 11:51 | 49.16562 | 12.60316 | 34802 ft | 462 kts | 125° |
| 2026-05-06 11:52 | 49.13487 | 12.68941 | 34814 ft | 462 kts | 126° |
| 2026-05-06 11:52 | 49.10396 | 12.77539 | 34812 ft | 462 kts | 126° |
| 2026-05-06 11:53 | 49.07297 | 12.86139 | 34816 ft | 462 kts | 126° |
| 2026-05-06 11:53 | 49.04200 | 12.94744 | 34821 ft | 463 kts | 126° |
| 2026-05-06 11:54 | 49.01095 | 13.03356 | 34822 ft | 463 kts | 126° |
| 2026-05-06 11:54 | 48.97982 | 13.11930 | 34820 ft | 463 kts | 126° |
| 2026-05-06 11:55 | 48.94857 | 13.20492 | 34820 ft | 463 kts | 126° |
| 2026-05-06 11:55 | 48.91733 | 13.29037 | 34788 ft | 463 kts | 126° |
| 2026-05-06 11:56 | 48.88615 | 13.37528 | 34791 ft | 463 kts | 126° |
| 2026-05-06 11:56 | 48.85469 | 13.46082 | 34804 ft | 464 kts | 126° |
| 2026-05-06 11:57 | 48.82313 | 13.54635 | 34813 ft | 464 kts | 126° |
| 2026-05-06 11:57 | 48.79151 | 13.63180 | 34821 ft | 464 kts | 126° |
| 2026-05-06 11:58 | 48.76031 | 13.71768 | 34790 ft | 468 kts | 121° |
| 2026-05-06 11:58 | 48.73373 | 13.80807 | 34808 ft | 470 kts | 120° |
| 2026-05-06 11:59 | 48.70720 | 13.89844 | 34818 ft | 470 kts | 120° |
| 2026-05-06 11:59 | 48.68048 | 13.98874 | 34823 ft | 470 kts | 121° |
| 2026-05-06 12:00 | 48.65366 | 14.07890 | 34788 ft | 470 kts | 120° |
| 2026-05-06 12:00 | 48.62685 | 14.16916 | 34797 ft | 471 kts | 120° |
| 2026-05-06 12:01 | 48.59987 | 14.25942 | 34813 ft | 471 kts | 121° |
| 2026-05-06 12:01 | 48.57284 | 14.34962 | 34819 ft | 471 kts | 121° |
| 2026-05-06 12:02 | 48.54571 | 14.43977 | 34798 ft | 472 kts | 120° |
| 2026-05-06 12:02 | 48.51850 | 14.52983 | 34814 ft | 472 kts | 120° |
| 2026-05-06 12:03 | 48.49124 | 14.61986 | 34824 ft | 472 kts | 121° |
| 2026-05-06 12:03 | 48.46388 | 14.70971 | 34824 ft | 471 kts | 121° |
| 2026-05-06 12:04 | 48.43661 | 14.79885 | 34830 ft | 472 kts | 121° |
| 2026-05-06 12:04 | 48.40913 | 14.88867 | 34802 ft | 472 kts | 121° |
| 2026-05-06 12:05 | 48.38153 | 14.97845 | 34804 ft | 473 kts | 121° |
| 2026-05-06 12:05 | 48.35386 | 15.06809 | 34813 ft | 473 kts | 121° |
| 2026-05-06 12:06 | 48.32604 | 15.15774 | 34819 ft | 473 kts | 121° |
| 2026-05-06 12:06 | 48.29811 | 15.24740 | 34806 ft | 473 kts | 121° |
| 2026-05-06 12:07 | 48.27018 | 15.33692 | 34799 ft | 474 kts | 121° |
| 2026-05-06 12:07 | 48.24210 | 15.42644 | 34801 ft | 474 kts | 121° |
| 2026-05-06 12:08 | 48.21873 | 15.50093 | 34806 ft | 475 kts | 121° |
| 2026-05-06 12:08 | 48.19057 | 15.59055 | 34794 ft | 475 kts | 121° |
| 2026-05-06 12:09 | 48.16223 | 15.68018 | 34799 ft | 476 kts | 121° |
| 2026-05-06 12:09 | 48.13369 | 15.76962 | 34812 ft | 476 kts | 121° |
| 2026-05-06 12:10 | 48.10504 | 15.85934 | 34818 ft | 477 kts | 121° |
| 2026-05-06 12:10 | 48.07667 | 15.94829 | 34812 ft | 477 kts | 121° |
| 2026-05-06 12:11 | 48.04798 | 16.03772 | 34828 ft | 477 kts | 121° |
| 2026-05-06 12:11 | 48.01920 | 16.12701 | 34836 ft | 477 kts | 121° |
| 2026-05-06 12:12 | 47.99036 | 16.21632 | 34839 ft | 477 kts | 121° |
| 2026-05-06 12:12 | 47.96146 | 16.30544 | 34839 ft | 477 kts | 121° |
| 2026-05-06 12:13 | 47.93243 | 16.39449 | 34827 ft | 477 kts | 121° |
| 2026-05-06 12:13 | 47.90343 | 16.48339 | 34841 ft | 477 kts | 121° |
| 2026-05-06 12:14 | 47.87441 | 16.57220 | 34851 ft | 477 kts | 121° |
| 2026-05-06 12:14 | 47.84521 | 16.66087 | 34843 ft | 477 kts | 121° |
| 2026-05-06 12:15 | 47.81594 | 16.74958 | 34851 ft | 478 kts | 121° |
| 2026-05-06 12:15 | 47.78672 | 16.83775 | 34859 ft | 478 kts | 121° |
| 2026-05-06 12:16 | 47.75727 | 16.92636 | 34862 ft | 478 kts | 121° |
| 2026-05-06 12:16 | 47.72771 | 17.01486 | 34863 ft | 478 kts | 121° |
| 2026-05-06 12:17 | 47.69462 | 17.09972 | 34854 ft | 473 kts | 128° |
| 2026-05-06 12:17 | 47.65864 | 17.18153 | 34864 ft | 473 kts | 128° |
| 2026-05-06 12:18 | 47.62262 | 17.26318 | 34879 ft | 472 kts | 128° |
| 2026-05-06 12:18 | 47.58669 | 17.34470 | 34895 ft | 472 kts | 128° |
| 2026-05-06 12:19 | 47.55070 | 17.42608 | 34884 ft | 472 kts | 128° |
| 2026-05-06 12:19 | 47.51461 | 17.50721 | 34901 ft | 472 kts | 128° |
| 2026-05-06 12:20 | 47.47873 | 17.58782 | 34906 ft | 472 kts | 128° |
| 2026-05-06 12:20 | 47.44263 | 17.66874 | 34909 ft | 471 kts | 128° |
| 2026-05-06 12:21 | 47.40643 | 17.74950 | 34891 ft | 471 kts | 127° |
| 2026-05-06 12:21 | 47.37023 | 17.83022 | 34896 ft | 472 kts | 128° |
| 2026-05-06 12:22 | 47.33393 | 17.91086 | 34898 ft | 471 kts | 128° |
| 2026-05-06 12:22 | 47.29746 | 17.99122 | 34906 ft | 472 kts | 128° |
| 2026-05-06 12:23 | 47.26100 | 18.07155 | 34918 ft | 472 kts | 128° |
| 2026-05-06 12:23 | 47.22455 | 18.15199 | 34918 ft | 472 kts | 127° |
| 2026-05-06 12:24 | 47.18811 | 18.23208 | 34927 ft | 471 kts | 128° |
| 2026-05-06 12:24 | 47.15149 | 18.31213 | 34922 ft | 471 kts | 128° |
| 2026-05-06 12:25 | 47.11507 | 18.39146 | 34927 ft | 472 kts | 128° |
| 2026-05-06 12:25 | 47.07831 | 18.47136 | 34921 ft | 472 kts | 128° |
| 2026-05-06 12:26 | 47.04156 | 18.55105 | 34926 ft | 472 kts | 128° |
| 2026-05-06 12:26 | 47.00472 | 18.63071 | 34935 ft | 471 kts | 128° |
| 2026-05-06 12:27 | 46.96789 | 18.71020 | 34936 ft | 471 kts | 128° |
| 2026-05-06 12:27 | 46.93095 | 18.78958 | 34939 ft | 471 kts | 128° |
| 2026-05-06 12:28 | 46.89397 | 18.86867 | 34940 ft | 471 kts | 128° |
| 2026-05-06 12:28 | 46.85702 | 18.94766 | 34946 ft | 471 kts | 128° |
| 2026-05-06 12:29 | 46.82031 | 19.02603 | 34934 ft | 470 kts | 128° |
| 2026-05-06 12:29 | 46.78315 | 19.10483 | 34945 ft | 471 kts | 128° |
| 2026-05-06 12:30 | 46.74602 | 19.18345 | 34950 ft | 471 kts | 128° |
| 2026-05-06 12:30 | 46.70885 | 19.26213 | 34950 ft | 471 kts | 128° |
| 2026-05-06 12:31 | 46.67155 | 19.34080 | 34955 ft | 471 kts | 128° |
| 2026-05-06 12:31 | 46.63418 | 19.41919 | 34929 ft | 471 kts | 128° |
| 2026-05-06 12:32 | 46.59677 | 19.49760 | 34947 ft | 472 kts | 128° |
| 2026-05-06 12:32 | 46.55929 | 19.57600 | 34948 ft | 472 kts | 128° |
| 2026-05-06 12:33 | 46.52168 | 19.65442 | 34960 ft | 473 kts | 129° |
| 2026-05-06 12:33 | 46.48404 | 19.73260 | 34941 ft | 473 kts | 128° |
| 2026-05-06 12:34 | 46.44626 | 19.81084 | 34941 ft | 474 kts | 128° |
| 2026-05-06 12:34 | 46.40833 | 19.88919 | 34949 ft | 474 kts | 129° |
| 2026-05-06 12:35 | 46.37030 | 19.96733 | 34956 ft | 475 kts | 129° |
| 2026-05-06 12:35 | 46.33219 | 20.04560 | 34958 ft | 475 kts | 129° |
| 2026-05-06 12:36 | 46.29436 | 20.12331 | 34966 ft | 475 kts | 129° |
| 2026-05-06 12:36 | 46.25626 | 20.20137 | 34968 ft | 475 kts | 129° |
| 2026-05-06 12:37 | 46.21798 | 20.27927 | 34967 ft | 475 kts | 129° |
| 2026-05-06 12:37 | 46.17961 | 20.35702 | 34964 ft | 475 kts | 129° |
| 2026-05-06 12:38 | 46.13931 | 20.43222 | 34954 ft | 472 kts | 135° |
| 2026-05-06 12:38 | 46.09612 | 20.50387 | 34960 ft | 473 kts | 135° |
| 2026-05-06 12:39 | 46.05300 | 20.57544 | 34964 ft | 474 kts | 135° |
| 2026-05-06 12:39 | 46.00977 | 20.64705 | 34962 ft | 474 kts | 134° |
| 2026-05-06 12:40 | 45.96640 | 20.71859 | 34975 ft | 474 kts | 134° |
| 2026-05-06 12:40 | 45.92333 | 20.78950 | 34975 ft | 474 kts | 134° |
| 2026-05-06 12:41 | 45.87992 | 20.86084 | 34981 ft | 474 kts | 134° |
| 2026-05-06 12:41 | 45.83650 | 20.93207 | 34976 ft | 474 kts | 134° |
| 2026-05-06 12:42 | 45.81011 | 20.97524 | 34974 ft | 474 kts | 134° |
| 2026-05-06 12:42 | 45.76650 | 21.04632 | 34987 ft | 474 kts | 134° |
| 2026-05-06 12:43 | 45.72282 | 21.11726 | 34989 ft | 474 kts | 134° |
| 2026-05-06 12:43 | 45.67915 | 21.18805 | 34986 ft | 474 kts | 134° |
| 2026-05-06 12:44 | 45.63546 | 21.25872 | 34988 ft | 474 kts | 134° |
| 2026-05-06 12:44 | 45.59177 | 21.32929 | 35000 ft | 474 kts | 134° |
| 2026-05-06 12:45 | 45.54813 | 21.39975 | 34980 ft | 474 kts | 134° |
| 2026-05-06 12:46 | 45.48233 | 21.50523 | 34979 ft | 475 kts | 134° |
| 2026-05-06 12:46 | 45.43824 | 21.57549 | 34982 ft | 476 kts | 134° |
| 2026-05-06 12:47 | 45.39413 | 21.64586 | 34976 ft | 477 kts | 134° |
| 2026-05-06 12:47 | 45.34994 | 21.71636 | 34987 ft | 477 kts | 134° |
| 2026-05-06 12:48 | 45.30604 | 21.78629 | 35001 ft | 477 kts | 134° |
| 2026-05-06 12:48 | 45.26174 | 21.85649 | 35010 ft | 477 kts | 134° |
| 2026-05-06 12:49 | 45.21732 | 21.92650 | 34995 ft | 477 kts | 134° |
| 2026-05-06 12:49 | 45.17281 | 21.99652 | 34999 ft | 478 kts | 134° |
| 2026-05-06 12:50 | 45.12834 | 22.06656 | 35007 ft | 478 kts | 134° |
| 2026-05-06 12:50 | 45.08377 | 22.13643 | 35005 ft | 478 kts | 134° |
| 2026-05-06 12:51 | 45.03908 | 22.20629 | 35008 ft | 478 kts | 134° |
| 2026-05-06 12:51 | 44.99473 | 22.27559 | 35011 ft | 478 kts | 134° |
| 2026-05-06 12:52 | 44.95004 | 22.34513 | 35008 ft | 479 kts | 134° |
| 2026-05-06 12:52 | 44.90512 | 22.41469 | 35002 ft | 479 kts | 134° |
| 2026-05-06 12:53 | 44.86018 | 22.48417 | 34993 ft | 479 kts | 134° |
| 2026-05-06 12:53 | 44.81524 | 22.55364 | 35000 ft | 480 kts | 134° |
| 2026-05-06 12:54 | 44.77023 | 22.62305 | 35001 ft | 480 kts | 133° |
| 2026-05-06 12:54 | 44.72510 | 22.69245 | 34996 ft | 480 kts | 133° |
| 2026-05-06 12:55 | 44.68758 | 22.75001 | 35000 ft | 480 kts | 133° |
| 2026-05-06 12:55 | 44.64234 | 22.81916 | 35003 ft | 480 kts | 134° |
| 2026-05-06 12:56 | 44.58981 | 22.89941 | 34997 ft | 480 kts | 134° |
| 2026-05-06 12:56 | 44.55194 | 22.95715 | 35000 ft | 480 kts | 134° |
| 2026-05-06 12:57 | 44.50652 | 23.02597 | 35002 ft | 480 kts | 134° |
| 2026-05-06 12:57 | 44.46143 | 23.09418 | 35002 ft | 480 kts | 134° |
| 2026-05-06 12:58 | 44.41602 | 23.16278 | 35001 ft | 480 kts | 133° |
| 2026-05-06 12:58 | 44.37054 | 23.23132 | 35001 ft | 481 kts | 133° |
| 2026-05-06 12:59 | 44.32504 | 23.29981 | 35003 ft | 481 kts | 133° |
| 2026-05-06 12:59 | 44.27938 | 23.36823 | 35014 ft | 481 kts | 133° |
| 2026-05-06 13:00 | 44.23378 | 23.43647 | 35009 ft | 481 kts | 133° |
| 2026-05-06 13:00 | 44.18806 | 23.50474 | 35009 ft | 482 kts | 133° |
| 2026-05-06 13:01 | 44.14214 | 23.57303 | 35010 ft | 482 kts | 133° |
| 2026-05-06 13:01 | 44.09626 | 23.64113 | 35017 ft | 482 kts | 133° |
| 2026-05-06 13:02 | 44.05038 | 23.70925 | 35013 ft | 483 kts | 133° |
| 2026-05-06 13:02 | 44.00470 | 23.77681 | 35005 ft | 483 kts | 133° |
| 2026-05-06 13:03 | 43.95858 | 23.84480 | 35012 ft | 483 kts | 133° |
| 2026-05-06 13:03 | 43.91238 | 23.91269 | 35017 ft | 483 kts | 133° |
| 2026-05-06 13:04 | 43.86611 | 23.98044 | 35013 ft | 484 kts | 133° |
| 2026-05-06 13:04 | 43.81982 | 24.04824 | 35018 ft | 484 kts | 133° |
| 2026-05-06 13:05 | 43.77347 | 24.11612 | 35013 ft | 485 kts | 133° |
| 2026-05-06 13:05 | 43.72709 | 24.18372 | 35012 ft | 485 kts | 133° |
| 2026-05-06 13:06 | 43.68073 | 24.25086 | 35022 ft | 486 kts | 134° |
| 2026-05-06 13:06 | 43.63254 | 24.31644 | 35021 ft | 486 kts | 135° |
| 2026-05-06 13:07 | 43.58561 | 24.38367 | 35029 ft | 486 kts | 130° |
| 2026-05-06 13:07 | 43.54121 | 24.45398 | 35013 ft | 486 kts | 129° |
| 2026-05-06 13:08 | 43.49677 | 24.52438 | 35021 ft | 487 kts | 130° |
| 2026-05-06 13:08 | 43.45143 | 24.59392 | 35026 ft | 488 kts | 131° |
| 2026-05-06 13:09 | 43.40571 | 24.66290 | 35015 ft | 488 kts | 131° |
| 2026-05-06 13:09 | 43.36027 | 24.73158 | 35021 ft | 488 kts | 131° |
| 2026-05-06 13:10 | 43.31466 | 24.80079 | 35024 ft | 489 kts | 130° |
| 2026-05-06 13:10 | 43.26901 | 24.86999 | 35042 ft | 489 kts | 130° |
| 2026-05-06 13:11 | 43.22324 | 24.93907 | 35021 ft | 489 kts | 130° |
| 2026-05-06 13:11 | 43.17730 | 25.00810 | 35028 ft | 490 kts | 131° |
| 2026-05-06 13:12 | 43.13141 | 25.07703 | 35010 ft | 490 kts | 130° |
| 2026-05-06 13:12 | 43.08547 | 25.14593 | 35028 ft | 490 kts | 131° |
| 2026-05-06 13:13 | 43.03964 | 25.21432 | 35023 ft | 490 kts | 131° |
| 2026-05-06 13:13 | 42.99354 | 25.28300 | 35036 ft | 490 kts | 131° |
| 2026-05-06 13:14 | 42.94748 | 25.35153 | 35027 ft | 490 kts | 131° |
| 2026-05-06 13:14 | 42.90134 | 25.42005 | 35034 ft | 490 kts | 131° |
| 2026-05-06 13:15 | 42.85508 | 25.48850 | 35037 ft | 490 kts | 131° |
| 2026-05-06 13:15 | 42.80881 | 25.55676 | 35012 ft | 490 kts | 131° |
| 2026-05-06 13:16 | 42.76255 | 25.62491 | 35044 ft | 491 kts | 131° |
| 2026-05-06 13:16 | 42.71641 | 25.69262 | 35047 ft | 491 kts | 131° |
| 2026-05-06 13:17 | 42.67002 | 25.76073 | 35035 ft | 491 kts | 131° |
| 2026-05-06 13:17 | 42.62353 | 25.82878 | 35066 ft | 491 kts | 131° |
| 2026-05-06 13:18 | 42.57688 | 25.89670 | 35063 ft | 491 kts | 131° |
| 2026-05-06 13:18 | 42.53031 | 25.96449 | 35043 ft | 490 kts | 131° |
| 2026-05-06 13:19 | 42.48380 | 26.03209 | 35046 ft | 490 kts | 131° |
| 2026-05-06 13:19 | 42.43716 | 26.09957 | 35065 ft | 491 kts | 131° |
| 2026-05-06 13:20 | 42.39079 | 26.16655 | 35057 ft | 490 kts | 131° |
| 2026-05-06 13:20 | 42.34420 | 26.23380 | 35058 ft | 490 kts | 131° |
| 2026-05-06 13:21 | 42.29760 | 26.30090 | 35072 ft | 489 kts | 131° |
| 2026-05-06 13:21 | 42.25112 | 26.36796 | 35070 ft | 488 kts | 131° |
| 2026-05-06 13:22 | 42.20455 | 26.43469 | 35049 ft | 488 kts | 131° |
| 2026-05-06 13:22 | 42.15792 | 26.50113 | 35053 ft | 488 kts | 131° |
| 2026-05-06 13:23 | 42.11142 | 26.56737 | 34814 ft | 481 kts | 131° |
| 2026-05-06 13:23 | 42.08847 | 26.59997 | 34499 ft | 477 kts | 131° |
| 2026-05-06 13:23 | 42.06572 | 26.63221 | 34157 ft | 474 kts | 131° |
| 2026-05-06 13:23 | 42.04308 | 26.66427 | 33739 ft | 471 kts | 131° |
| 2026-05-06 13:24 | 42.02064 | 26.69611 | 33299 ft | 467 kts | 131° |
| 2026-05-06 13:24 | 41.99838 | 26.72774 | 32867 ft | 464 kts | 131° |
| 2026-05-06 13:24 | 41.97660 | 26.75964 | 32442 ft | 460 kts | 126° |
| 2026-05-06 13:24 | 41.95835 | 26.79449 | 31958 ft | 454 kts | 118° |
| 2026-05-06 13:25 | 41.94208 | 26.83064 | 31474 ft | 451 kts | 118° |
| 2026-05-06 13:25 | 41.92584 | 26.86660 | 30998 ft | 448 kts | 118° |
| 2026-05-06 13:25 | 41.90968 | 26.90224 | 30525 ft | 446 kts | 118° |
| 2026-05-06 13:25 | 41.89356 | 26.93770 | 30052 ft | 443 kts | 118° |
| 2026-05-06 13:26 | 41.87756 | 26.97288 | 29526 ft | 441 kts | 118° |
| 2026-05-06 13:26 | 41.86158 | 27.00793 | 29011 ft | 439 kts | 118° |
| 2026-05-06 13:26 | 41.84573 | 27.04274 | 28492 ft | 436 kts | 118° |
| 2026-05-06 13:26 | 41.82992 | 27.07743 | 27991 ft | 434 kts | 118° |
| 2026-05-06 13:27 | 41.81419 | 27.11187 | 27470 ft | 432 kts | 118° |
| 2026-05-06 13:27 | 41.79821 | 27.14583 | 27096 ft | 428 kts | 120° |
| 2026-05-06 13:27 | 41.78178 | 27.17867 | 27014 ft | 419 kts | 122° |
| 2026-05-06 13:27 | 41.76510 | 27.21081 | 27046 ft | 420 kts | 122° |
| 2026-05-06 13:28 | 41.74823 | 27.24283 | 27047 ft | 420 kts | 122° |
| 2026-05-06 13:28 | 41.73141 | 27.27474 | 27055 ft | 420 kts | 122° |
| 2026-05-06 13:28 | 41.71405 | 27.30629 | 27040 ft | 422 kts | 129° |
| 2026-05-06 13:28 | 41.69287 | 27.33392 | 26579 ft | 428 kts | 141° |
| 2026-05-06 13:29 | 41.66769 | 27.35514 | 26054 ft | 429 kts | 152° |
| 2026-05-06 13:29 | 41.64296 | 27.37632 | 25541 ft | 427 kts | 135° |
| 2026-05-06 13:29 | 41.62303 | 27.40541 | 25039 ft | 425 kts | 128° |
| 2026-05-06 13:29 | 41.60417 | 27.43591 | 24543 ft | 425 kts | 127° |
| 2026-05-06 13:30 | 41.58556 | 27.46649 | 24044 ft | 425 kts | 127° |
| 2026-05-06 13:30 | 41.56670 | 27.49704 | 23573 ft | 425 kts | 128° |
| 2026-05-06 13:30 | 41.54759 | 27.52720 | 22995 ft | 425 kts | 128° |
| 2026-05-06 13:30 | 41.52821 | 27.55709 | 22433 ft | 425 kts | 129° |
| 2026-05-06 13:31 | 41.50871 | 27.58670 | 21876 ft | 425 kts | 129° |
| 2026-05-06 13:31 | 41.48917 | 27.61618 | 21340 ft | 424 kts | 129° |
| 2026-05-06 13:31 | 41.46961 | 27.64561 | 20804 ft | 423 kts | 129° |
| 2026-05-06 13:31 | 41.45014 | 27.67492 | 20282 ft | 422 kts | 129° |
| 2026-05-06 13:32 | 41.43073 | 27.70422 | 19766 ft | 420 kts | 129° |
| 2026-05-06 13:32 | 41.41142 | 27.73340 | 19273 ft | 418 kts | 129° |
| 2026-05-06 13:32 | 41.39225 | 27.76240 | 18771 ft | 416 kts | 129° |
| 2026-05-06 13:32 | 41.37330 | 27.79110 | 18264 ft | 407 kts | 129° |
| 2026-05-06 13:33 | 41.35486 | 27.81901 | 17695 ft | 395 kts | 129° |
| 2026-05-06 13:33 | 41.33700 | 27.84604 | 17144 ft | 383 kts | 129° |
| 2026-05-06 13:33 | 41.31966 | 27.87226 | 16604 ft | 373 kts | 129° |
| 2026-05-06 13:33 | 41.30270 | 27.89781 | 16070 ft | 364 kts | 129° |
| 2026-05-06 13:34 | 41.28614 | 27.92271 | 15545 ft | 355 kts | 129° |
| 2026-05-06 13:34 | 41.26989 | 27.94709 | 15031 ft | 349 kts | 129° |
| 2026-05-06 13:34 | 41.25379 | 27.97128 | 14539 ft | 350 kts | 129° |
| 2026-05-06 13:34 | 41.23771 | 27.99543 | 14112 ft | 348 kts | 129° |
| 2026-05-06 13:35 | 41.22171 | 28.01949 | 13672 ft | 347 kts | 129° |
| 2026-05-06 13:35 | 41.20597 | 28.04317 | 13192 ft | 346 kts | 129° |
| 2026-05-06 13:35 | 41.19008 | 28.06704 | 12724 ft | 344 kts | 129° |
| 2026-05-06 13:35 | 41.17404 | 28.09112 | 12265 ft | 343 kts | 129° |
| 2026-05-06 13:36 | 41.15825 | 28.11483 | 11810 ft | 342 kts | 129° |
| 2026-05-06 13:36 | 41.14270 | 28.13812 | 11364 ft | 341 kts | 129° |
| 2026-05-06 13:36 | 41.12699 | 28.16161 | 10922 ft | 340 kts | 129° |
| 2026-05-06 13:36 | 41.11131 | 28.18500 | 10492 ft | 339 kts | 129° |
| 2026-05-06 13:37 | 41.09564 | 28.20833 | 10056 ft | 338 kts | 129° |
| 2026-05-06 13:37 | 41.08006 | 28.23149 | 9661 ft | 333 kts | 129° |
| 2026-05-06 13:37 | 41.06494 | 28.25391 | 9500 ft | 321 kts | 129° |
| 2026-05-06 13:37 | 41.05036 | 28.27556 | 9358 ft | 310 kts | 129° |
| 2026-05-06 13:38 | 41.03616 | 28.29663 | 9089 ft | 304 kts | 129° |
| 2026-05-06 13:38 | 41.02214 | 28.31745 | 8753 ft | 302 kts | 129° |
| 2026-05-06 13:38 | 41.00825 | 28.33810 | 8459 ft | 298 kts | 129° |
| 2026-05-06 13:38 | 40.99457 | 28.35842 | 8119 ft | 291 kts | 129° |
| 2026-05-06 13:39 | 40.98129 | 28.37816 | 7791 ft | 283 kts | 129° |
| 2026-05-06 13:39 | 40.97021 | 28.39917 | 7483 ft | 277 kts | 116° |
| 2026-05-06 13:39 | 40.96077 | 28.42133 | 7160 ft | 276 kts | 116° |
| 2026-05-06 13:39 | 40.95130 | 28.44340 | 6841 ft | 275 kts | 117° |
| 2026-05-06 13:40 | 40.94187 | 28.46521 | 6615 ft | 271 kts | 117° |
| 2026-05-06 13:40 | 40.93258 | 28.48659 | 6392 ft | 266 kts | 117° |
| 2026-05-06 13:40 | 40.92348 | 28.50752 | 6151 ft | 260 kts | 118° |
| 2026-05-06 13:40 | 40.91457 | 28.52809 | 5933 ft | 255 kts | 117° |
| 2026-05-06 13:41 | 40.90586 | 28.54825 | 5698 ft | 251 kts | 117° |
| 2026-05-06 13:41 | 40.89793 | 28.56863 | 5461 ft | 247 kts | 106° |
| 2026-05-06 13:41 | 40.89497 | 28.59014 | 5247 ft | 237 kts | 86° |
| 2026-05-06 13:41 | 40.89731 | 28.61110 | 5067 ft | 227 kts | 68° |
| 2026-05-06 13:42 | 40.90253 | 28.63092 | 5003 ft | 228 kts | 67° |
| 2026-05-06 13:42 | 40.90772 | 28.65083 | 5008 ft | 229 kts | 67° |
| 2026-05-06 13:42 | 40.91297 | 28.67062 | 5034 ft | 228 kts | 63° |
| 2026-05-06 13:42 | 40.92115 | 28.68823 | 5010 ft | 223 kts | 45° |
| 2026-05-06 13:43 | 40.93274 | 28.70144 | 5008 ft | 219 kts | 28° |
| 2026-05-06 13:43 | 40.94604 | 28.71121 | 5010 ft | 219 kts | 25° |
| 2026-05-06 13:43 | 40.95935 | 28.72095 | 5010 ft | 219 kts | 26° |
| 2026-05-06 13:43 | 40.97290 | 28.72986 | 5008 ft | 216 kts | 15° |
| 2026-05-06 13:44 | 40.98729 | 28.73308 | 5009 ft | 203 kts | 358° |
| 2026-05-06 13:44 | 41.00116 | 28.73278 | 5030 ft | 198 kts | 357° |
| 2026-05-06 13:44 | 41.01047 | 28.73261 | 5015 ft | 198 kts | 357° |
| 2026-05-06 13:44 | 41.02424 | 28.73235 | 4906 ft | 198 kts | 357° |
| 2026-05-06 13:45 | 41.03796 | 28.73209 | 4668 ft | 197 kts | 357° |
| 2026-05-06 13:45 | 41.06531 | 28.73156 | 4169 ft | 198 kts | 358° |
| 2026-05-06 13:45 | 41.07911 | 28.73130 | 3898 ft | 199 kts | 358° |
| 2026-05-06 13:46 | 41.09297 | 28.73103 | 3629 ft | 199 kts | 358° |
| 2026-05-06 13:46 | 41.10676 | 28.73076 | 3368 ft | 196 kts | 358° |
| 2026-05-06 13:46 | 41.12010 | 28.73051 | 3108 ft | 187 kts | 358° |
| 2026-05-06 13:46 | 41.13300 | 28.73026 | 2859 ft | 185 kts | 359° |
| 2026-05-06 13:47 | 41.14586 | 28.73001 | 2606 ft | 185 kts | 359° |
| 2026-05-06 13:47 | 41.15870 | 28.72976 | 2369 ft | 184 kts | 359° |
| 2026-05-06 13:47 | 41.17138 | 28.72951 | 2120 ft | 177 kts | 359° |
| 2026-05-06 13:47 | 41.18316 | 28.72929 | 1903 ft | 161 kts | 359° |
| 2026-05-06 13:48 | 41.19415 | 28.72906 | 1676 ft | 155 kts | 359° |
| 2026-05-06 13:48 | 41.20481 | 28.72872 | 1463 ft | 152 kts | 0° |
| 2026-05-06 13:48 | 41.21535 | 28.72884 | 1266 ft | 151 kts | 0° |
| 2026-05-06 13:48 | 41.22579 | 28.72847 | 1074 ft | 148 kts | 359° |
| 2026-05-06 13:49 | 41.23608 | 28.72823 | 870 ft | 148 kts | 2° |
| 2026-05-06 13:49 | 41.24628 | 28.72807 | 655 ft | 145 kts | 1° |
| 2026-05-06 13:49 | 41.25627 | 28.72793 | 489 ft | 143 kts | 4° |
| 2026-05-06 13:49 | 41.26616 | 28.72765 | 354 ft | 136 kts | 4° |
| 2026-05-06 13:50 | 41.27428 | 28.72753 | 332 ft | 94 kts | 358° |
| 2026-05-06 13:50 | 41.27907 | 28.72737 | 333 ft | 44 kts | 359° |
| 2026-05-06 13:50 | 41.28175 | 28.72736 | 334 ft | 30 kts | 4° |
| 2026-05-06 13:50 | 41.28353 | 28.72795 | 334 ft | 25 kts | 25° |
| 2026-05-06 13:51 | 41.28440 | 28.72857 | 333 ft | 6 kts | 32° |
| 2026-05-06 13:51 | 41.28456 | 28.72910 | 331 ft | 7 kts | 100° |
| 2026-05-06 13:51 | 41.28418 | 28.72948 | 333 ft | 8 kts | 164° |
| 2026-05-06 13:51 | 41.28359 | 28.72954 | 331 ft | 9 kts | 179° |
| 2026-05-06 13:52 | 41.28290 | 28.72956 | 330 ft | 11 kts | 179° |
| 2026-05-06 13:52 | 41.28212 | 28.72958 | 329 ft | 12 kts | 179° |
| 2026-05-06 13:52 | 41.28125 | 28.72960 | 330 ft | 13 kts | 179° |
| 2026-05-06 13:52 | 41.28029 | 28.72962 | 330 ft | 14 kts | 179° |
| 2026-05-06 13:53 | 41.27925 | 28.72965 | 330 ft | 16 kts | 179° |
| 2026-05-06 13:53 | 41.27813 | 28.72967 | 333 ft | 17 kts | 179° |
| 2026-05-06 13:53 | 41.27693 | 28.72970 | 334 ft | 18 kts | 179° |
| 2026-05-06 13:53 | 41.27564 | 28.72973 | 330 ft | 19 kts | 179° |
| 2026-05-06 13:54 | 41.27428 | 28.72976 | 330 ft | 20 kts | 179° |
| 2026-05-06 13:54 | 41.27285 | 28.72979 | 333 ft | 21 kts | 179° |
| 2026-05-06 13:54 | 41.27144 | 28.72982 | 332 ft | 19 kts | 179° |
| 2026-05-06 13:54 | 41.27018 | 28.72986 | 329 ft | 17 kts | 179° |
| 2026-05-06 13:55 | 41.26911 | 28.72988 | 333 ft | 11 kts | 179° |
| 2026-05-06 13:55 | 41.26866 | 28.73043 | 330 ft | 8 kts | 100° |
| 2026-05-06 13:55 | 41.26865 | 28.73117 | 334 ft | 9 kts | 90° |
| 2026-05-06 13:55 | 41.26867 | 28.73200 | 332 ft | 9 kts | 89° |
| 2026-05-06 13:56 | 41.26868 | 28.73288 | 331 ft | 10 kts | 89° |
| 2026-05-06 13:56 | 41.26870 | 28.73379 | 331 ft | 10 kts | 89° |
| 2026-05-06 13:56 | 41.26839 | 28.73441 | 330 ft | 7 kts | 165° |
| 2026-05-06 13:56 | 41.26795 | 28.73441 | 330 ft | 4 kts | 179° |
| 2026-05-06 13:57 | 41.26783 | 28.73442 | 330 ft | 1 kts | 179° |
| 2026-05-06 13:57 | 41.26781 | 28.73442 | 330 ft | 1 kts | 179° |
| 2026-05-06 13:57 | 41.26780 | 28.73442 | 330 ft | 0 kts | 179° |